Cincinnati, Ohio
Traffic Map
Current Weather Conditions
Cincinnati, Ohio
Clear
Clear

Feels Like: 1°
Wind Chill: Ceiling: Unl
Heat Index: Visibility: 10mi
Dew Point: -9° Wind: 3mph
Humidity: 48% Direction: 30° (NNE)
Pressure: 30.45in Gusts: 0mph
Raw Report DataKLUK 022253Z 03003KT 10SM CLR 01/M09 A3045 RMK AO2 SLP318 T00061094
Traffic Incident Summary
Active as of:
Severity:
Category:
InformationThere was an issue retrieving the traffic information for this location. Please try a different location or try again shortly.
Advertisements
Track Severe Weather on mobile